Terminal Aerodrome Forecast
Issued by NWS

Home | Current Version | Previous Version | Text Only | Print | Product List | Glossary On
Versions: 1 2 3 4 5 6 7 8 9 10 11 12 13 14 15 16 17 18 19 20 21
275
FTUS44 KOHX 122017 AAA
TAFCKV
TAF AMD
KCKV 122017Z 1220/1318 32008G16KT P6SM BKN025 OVC050
     FM130100 33009G16KT P6SM OVC025
     FM130600 33009G16KT P6SM SKC=

USA.gov is the U.S. government's official web portal to all federal, state and local government web resources and services.